sensor_id;sensor_type;location;lat;lon;timestamp;P1;durP1;ratioP1;P2;durP2;ratioP2
70148;SDS011;57514;52.164;5.282;2022-07-17T00:01:13;6.35;;;2.10;;
70148;SDS011;57514;52.164;5.282;2022-07-17T00:03:40;4.88;;;2.72;;
70148;SDS011;57514;52.164;5.282;2022-07-17T00:06:08;4.20;;;2.00;;
70148;SDS011;57514;52.164;5.282;2022-07-17T00:08:35;6.32;;;2.63;;
70148;SDS011;57514;52.164;5.282;2022-07-17T00:11:02;4.93;;;2.33;;
70148;SDS011;57514;52.164;5.282;2022-07-17T00:13:29;7.13;;;2.72;;
70148;SDS011;57514;52.164;5.282;2022-07-17T00:15:57;8.32;;;2.65;;
70148;SDS011;57514;52.164;5.282;2022-07-17T00:18:24;6.40;;;2.22;;
70148;SDS011;57514;52.164;5.282;2022-07-17T00:20:51;6.32;;;2.35;;
70148;SDS011;57514;52.164;5.282;2022-07-17T00:23:19;6.22;;;2.15;;
70148;SDS011;57514;52.164;5.282;2022-07-17T00:25:47;5.95;;;2.17;;
70148;SDS011;57514;52.164;5.282;2022-07-17T00:28:14;4.68;;;2.47;;
70148;SDS011;57514;52.164;5.282;2022-07-17T00:30:42;8.40;;;2.75;;
70148;SDS011;57514;52.164;5.282;2022-07-17T00:33:09;9.57;;;2.28;;
70148;SDS011;57514;52.164;5.282;2022-07-17T00:35:36;6.00;;;2.45;;
70148;SDS011;57514;52.164;5.282;2022-07-17T00:38:04;6.70;;;2.13;;
70148;SDS011;57514;52.164;5.282;2022-07-17T00:40:31;6.30;;;2.50;;
70148;SDS011;57514;52.164;5.282;2022-07-17T00:42:58;6.03;;;2.22;;
70148;SDS011;57514;52.164;5.282;2022-07-17T00:45:25;6.30;;;2.10;;
70148;SDS011;57514;52.164;5.282;2022-07-17T00:47:54;5.93;;;2.30;;
70148;SDS011;57514;52.164;5.282;2022-07-17T00:50:22;6.90;;;2.83;;
70148;SDS011;57514;52.164;5.282;2022-07-17T00:52:50;7.03;;;2.90;;
70148;SDS011;57514;52.164;5.282;2022-07-17T00:55:17;6.25;;;2.38;;
70148;SDS011;57514;52.164;5.282;2022-07-17T00:58:05;5.93;;;2.30;;
70148;SDS011;57514;52.164;5.282;2022-07-17T01:00:33;4.80;;;2.25;;
70148;SDS011;57514;52.164;5.282;2022-07-17T01:03:00;5.97;;;2.50;;
70148;SDS011;57514;52.164;5.282;2022-07-17T01:05:29;7.68;;;2.55;;
70148;SDS011;57514;52.164;5.282;2022-07-17T01:07:58;4.88;;;2.22;;
70148;SDS011;57514;52.164;5.282;2022-07-17T01:10:25;7.25;;;2.42;;
70148;SDS011;57514;52.164;5.282;2022-07-17T01:12:52;4.68;;;2.30;;
70148;SDS011;57514;52.164;5.282;2022-07-17T01:15:20;5.95;;;2.42;;
70148;SDS011;57514;52.164;5.282;2022-07-17T01:17:50;4.22;;;2.08;;
70148;SDS011;57514;52.164;5.282;2022-07-17T01:20:17;5.35;;;2.95;;
70148;SDS011;57514;52.164;5.282;2022-07-17T01:22:46;8.65;;;2.42;;
70148;SDS011;57514;52.164;5.282;2022-07-17T01:25:15;6.30;;;2.92;;
70148;SDS011;57514;52.164;5.282;2022-07-17T01:27:42;7.63;;;2.53;;
70148;SDS011;57514;52.164;5.282;2022-07-17T01:30:09;5.90;;;2.78;;
70148;SDS011;57514;52.164;5.282;2022-07-17T01:32:38;6.72;;;2.50;;
70148;SDS011;57514;52.164;5.282;2022-07-17T01:35:06;5.18;;;2.80;;
70148;SDS011;57514;52.164;5.282;2022-07-17T01:37:33;5.57;;;2.42;;
70148;SDS011;57514;52.164;5.282;2022-07-17T01:40:00;6.45;;;2.83;;
70148;SDS011;57514;52.164;5.282;2022-07-17T01:42:28;5.55;;;3.10;;
70148;SDS011;57514;52.164;5.282;2022-07-17T01:44:55;6.70;;;2.33;;
70148;SDS011;57514;52.164;5.282;2022-07-17T01:47:22;8.18;;;2.80;;
70148;SDS011;57514;52.164;5.282;2022-07-17T01:49:51;5.07;;;2.55;;
70148;SDS011;57514;52.164;5.282;2022-07-17T01:52:19;6.55;;;2.60;;
70148;SDS011;57514;52.164;5.282;2022-07-17T01:54:46;4.55;;;2.55;;
70148;SDS011;57514;52.164;5.282;2022-07-17T01:57:14;4.82;;;2.25;;
70148;SDS011;57514;52.164;5.282;2022-07-17T01:59:41;4.97;;;2.20;;
70148;SDS011;57514;52.164;5.282;2022-07-17T02:02:08;6.57;;;2.70;;
70148;SDS011;57514;52.164;5.282;2022-07-17T02:04:36;4.97;;;2.38;;
70148;SDS011;57514;52.164;5.282;2022-07-17T02:07:04;7.55;;;2.65;;
70148;SDS011;57514;52.164;5.282;2022-07-17T02:09:31;8.00;;;2.55;;
70148;SDS011;57514;52.164;5.282;2022-07-17T02:11:58;5.38;;;2.72;;
70148;SDS011;57514;52.164;5.282;2022-07-17T02:14:26;8.18;;;2.72;;
70148;SDS011;57514;52.164;5.282;2022-07-17T02:16:54;6.25;;;2.75;;
70148;SDS011;57514;52.164;5.282;2022-07-17T02:19:21;6.82;;;2.33;;
70148;SDS011;57514;52.164;5.282;2022-07-17T02:21:49;6.28;;;2.63;;
70148;SDS011;57514;52.164;5.282;2022-07-17T02:24:16;5.05;;;2.30;;
70148;SDS011;57514;52.164;5.282;2022-07-17T02:26:43;7.45;;;2.92;;
70148;SDS011;57514;52.164;5.282;2022-07-17T02:29:11;7.50;;;2.95;;
70148;SDS011;57514;52.164;5.282;2022-07-17T02:31:38;7.70;;;2.67;;
70148;SDS011;57514;52.164;5.282;2022-07-17T02:34:05;9.25;;;3.13;;
70148;SDS011;57514;52.164;5.282;2022-07-17T02:36:32;8.23;;;2.60;;
70148;SDS011;57514;52.164;5.282;2022-07-17T02:39:00;5.97;;;2.42;;
70148;SDS011;57514;52.164;5.282;2022-07-17T02:41:27;7.07;;;2.22;;
70148;SDS011;57514;52.164;5.282;2022-07-17T02:43:55;4.75;;;2.50;;
70148;SDS011;57514;52.164;5.282;2022-07-17T02:46:22;5.00;;;2.65;;
70148;SDS011;57514;52.164;5.282;2022-07-17T02:48:49;6.07;;;2.67;;
70148;SDS011;57514;52.164;5.282;2022-07-17T02:51:17;7.55;;;2.67;;
70148;SDS011;57514;52.164;5.282;2022-07-17T02:53:44;7.13;;;2.53;;
70148;SDS011;57514;52.164;5.282;2022-07-17T02:56:11;5.70;;;2.60;;
70148;SDS011;57514;52.164;5.282;2022-07-17T02:58:38;6.32;;;2.90;;
70148;SDS011;57514;52.164;5.282;2022-07-17T03:01:05;6.43;;;2.45;;
70148;SDS011;57514;52.164;5.282;2022-07-17T03:03:33;7.07;;;2.95;;
70148;SDS011;57514;52.164;5.282;2022-07-17T03:06:00;8.07;;;2.55;;
70148;SDS011;57514;52.164;5.282;2022-07-17T03:08:27;10.80;;;2.63;;
70148;SDS011;57514;52.164;5.282;2022-07-17T03:10:54;8.23;;;2.85;;
70148;SDS011;57514;52.164;5.282;2022-07-17T03:13:22;5.80;;;2.53;;
70148;SDS011;57514;52.164;5.282;2022-07-17T03:15:49;8.18;;;2.83;;
70148;SDS011;57514;52.164;5.282;2022-07-17T03:18:17;6.05;;;2.47;;
70148;SDS011;57514;52.164;5.282;2022-07-17T03:20:44;6.45;;;2.25;;
70148;SDS011;57514;52.164;5.282;2022-07-17T03:23:11;5.47;;;2.83;;
70148;SDS011;57514;52.164;5.282;2022-07-17T03:25:38;6.68;;;2.67;;
70148;SDS011;57514;52.164;5.282;2022-07-17T03:28:06;8.00;;;2.58;;
70148;SDS011;57514;52.164;5.282;2022-07-17T03:30:33;4.80;;;2.35;;
70148;SDS011;57514;52.164;5.282;2022-07-17T03:33:00;6.20;;;2.70;;
70148;SDS011;57514;52.164;5.282;2022-07-17T03:35:27;8.05;;;2.75;;
70148;SDS011;57514;52.164;5.282;2022-07-17T03:37:54;10.25;;;3.15;;
70148;SDS011;57514;52.164;5.282;2022-07-17T03:40:22;8.05;;;2.53;;
70148;SDS011;57514;52.164;5.282;2022-07-17T03:42:49;7.50;;;2.42;;
70148;SDS011;57514;52.164;5.282;2022-07-17T03:45:16;6.47;;;2.67;;
70148;SDS011;57514;52.164;5.282;2022-07-17T03:47:43;8.77;;;3.00;;
70148;SDS011;57514;52.164;5.282;2022-07-17T03:50:10;8.73;;;2.78;;
70148;SDS011;57514;52.164;5.282;2022-07-17T03:52:37;5.45;;;2.53;;
70148;SDS011;57514;52.164;5.282;2022-07-17T03:55:05;7.22;;;2.90;;
70148;SDS011;57514;52.164;5.282;2022-07-17T03:57:32;7.05;;;2.78;;
70148;SDS011;57514;52.164;5.282;2022-07-17T04:00:00;6.90;;;2.53;;
70148;SDS011;57514;52.164;5.282;2022-07-17T04:02:36;9.23;;;3.30;;
70148;SDS011;57514;52.164;5.282;2022-07-17T04:05:04;7.45;;;2.47;;
70148;SDS011;57514;52.164;5.282;2022-07-17T04:07:38;7.28;;;2.72;;
70148;SDS011;57514;52.164;5.282;2022-07-17T04:10:06;6.35;;;2.42;;
70148;SDS011;57514;52.164;5.282;2022-07-17T04:12:34;6.32;;;2.45;;
70148;SDS011;57514;52.164;5.282;2022-07-17T04:15:01;5.65;;;2.33;;
70148;SDS011;57514;52.164;5.282;2022-07-17T04:17:29;4.88;;;2.30;;
70148;SDS011;57514;52.164;5.282;2022-07-17T04:19:56;8.13;;;2.70;;
70148;SDS011;57514;52.164;5.282;2022-07-17T04:22:23;5.82;;;2.47;;
70148;SDS011;57514;52.164;5.282;2022-07-17T04:24:51;5.85;;;2.47;;
70148;SDS011;57514;52.164;5.282;2022-07-17T04:27:18;6.72;;;2.55;;
70148;SDS011;57514;52.164;5.282;2022-07-17T04:29:45;5.72;;;2.35;;
70148;SDS011;57514;52.164;5.282;2022-07-17T04:32:12;7.45;;;2.38;;
70148;SDS011;57514;52.164;5.282;2022-07-17T04:34:40;3.88;;;2.03;;
70148;SDS011;57514;52.164;5.282;2022-07-17T04:37:07;6.28;;;2.72;;
70148;SDS011;57514;52.164;5.282;2022-07-17T04:39:34;10.43;;;2.88;;
70148;SDS011;57514;52.164;5.282;2022-07-17T04:42:01;7.43;;;2.63;;
70148;SDS011;57514;52.164;5.282;2022-07-17T04:44:28;10.95;;;2.75;;
70148;SDS011;57514;52.164;5.282;2022-07-17T04:46:56;6.80;;;2.30;;
70148;SDS011;57514;52.164;5.282;2022-07-17T04:49:23;5.63;;;2.45;;
70148;SDS011;57514;52.164;5.282;2022-07-17T04:51:50;5.63;;;2.53;;
70148;SDS011;57514;52.164;5.282;2022-07-17T04:54:17;5.80;;;2.53;;
70148;SDS011;57514;52.164;5.282;2022-07-17T04:56:44;7.43;;;2.80;;
70148;SDS011;57514;52.164;5.282;2022-07-17T04:59:12;4.80;;;2.55;;
70148;SDS011;57514;52.164;5.282;2022-07-17T05:01:39;6.28;;;2.33;;
70148;SDS011;57514;52.164;5.282;2022-07-17T05:04:06;4.07;;;1.80;;
70148;SDS011;57514;52.164;5.282;2022-07-17T05:06:33;5.07;;;2.28;;
70148;SDS011;57514;52.164;5.282;2022-07-17T05:09:01;5.05;;;2.30;;
70148;SDS011;57514;52.164;5.282;2022-07-17T05:11:28;7.03;;;2.22;;
70148;SDS011;57514;52.164;5.282;2022-07-17T05:13:55;5.68;;;2.38;;
70148;SDS011;57514;52.164;5.282;2022-07-17T05:16:23;5.10;;;2.47;;
70148;SDS011;57514;52.164;5.282;2022-07-17T05:18:50;5.60;;;2.13;;
70148;SDS011;57514;52.164;5.282;2022-07-17T05:21:17;5.53;;;2.40;;
70148;SDS011;57514;52.164;5.282;2022-07-17T05:23:44;7.35;;;2.25;;
70148;SDS011;57514;52.164;5.282;2022-07-17T05:26:12;6.78;;;2.03;;
70148;SDS011;57514;52.164;5.282;2022-07-17T05:28:39;5.80;;;2.10;;
70148;SDS011;57514;52.164;5.282;2022-07-17T05:31:06;5.03;;;1.85;;
70148;SDS011;57514;52.164;5.282;2022-07-17T05:33:33;6.53;;;2.10;;
70148;SDS011;57514;52.164;5.282;2022-07-17T05:36:02;8.63;;;2.63;;
70148;SDS011;57514;52.164;5.282;2022-07-17T05:38:29;6.15;;;1.80;;
70148;SDS011;57514;52.164;5.282;2022-07-17T05:40:56;8.10;;;2.35;;
70148;SDS011;57514;52.164;5.282;2022-07-17T05:43:23;9.30;;;2.15;;
70148;SDS011;57514;52.164;5.282;2022-07-17T05:45:54;4.88;;;2.28;;
70148;SDS011;57514;52.164;5.282;2022-07-17T05:48:22;4.07;;;1.65;;
70148;SDS011;57514;52.164;5.282;2022-07-17T05:50:49;6.13;;;2.03;;
70148;SDS011;57514;52.164;5.282;2022-07-17T05:53:16;11.77;;;1.95;;
70148;SDS011;57514;52.164;5.282;2022-07-17T05:55:43;9.80;;;1.92;;
70148;SDS011;57514;52.164;5.282;2022-07-17T05:58:11;8.43;;;2.50;;
70148;SDS011;57514;52.164;5.282;2022-07-17T06:00:38;10.48;;;2.28;;
70148;SDS011;57514;52.164;5.282;2022-07-17T06:03:05;5.40;;;1.90;;
70148;SDS011;57514;52.164;5.282;2022-07-17T06:05:32;9.05;;;2.05;;
70148;SDS011;57514;52.164;5.282;2022-07-17T06:08:00;10.23;;;2.08;;
70148;SDS011;57514;52.164;5.282;2022-07-17T06:10:27;8.80;;;2.35;;
70148;SDS011;57514;52.164;5.282;2022-07-17T06:12:55;7.90;;;1.92;;
70148;SDS011;57514;52.164;5.282;2022-07-17T06:15:22;4.97;;;1.73;;
70148;SDS011;57514;52.164;5.282;2022-07-17T06:17:50;6.45;;;2.00;;
70148;SDS011;57514;52.164;5.282;2022-07-17T06:20:17;7.70;;;2.13;;
70148;SDS011;57514;52.164;5.282;2022-07-17T06:22:45;8.20;;;1.80;;
70148;SDS011;57514;52.164;5.282;2022-07-17T06:25:12;7.28;;;1.95;;
70148;SDS011;57514;52.164;5.282;2022-07-17T06:27:40;4.50;;;1.63;;
70148;SDS011;57514;52.164;5.282;2022-07-17T06:30:08;6.85;;;1.88;;
70148;SDS011;57514;52.164;5.282;2022-07-17T06:32:36;4.65;;;1.90;;
70148;SDS011;57514;52.164;5.282;2022-07-17T06:35:03;6.88;;;2.03;;
70148;SDS011;57514;52.164;5.282;2022-07-17T06:37:30;7.82;;;2.10;;
70148;SDS011;57514;52.164;5.282;2022-07-17T06:39:58;6.18;;;1.70;;
70148;SDS011;57514;52.164;5.282;2022-07-17T06:42:25;8.18;;;1.60;;
70148;SDS011;57514;52.164;5.282;2022-07-17T06:44:57;5.07;;;1.70;;
70148;SDS011;57514;52.164;5.282;2022-07-17T06:47:24;3.67;;;1.63;;
70148;SDS011;57514;52.164;5.282;2022-07-17T06:49:51;6.22;;;1.60;;
70148;SDS011;57514;52.164;5.282;2022-07-17T06:52:18;5.53;;;1.90;;
70148;SDS011;57514;52.164;5.282;2022-07-17T06:54:46;5.40;;;1.90;;
70148;SDS011;57514;52.164;5.282;2022-07-17T06:57:13;7.18;;;1.80;;
70148;SDS011;57514;52.164;5.282;2022-07-17T06:59:40;5.57;;;1.85;;
70148;SDS011;57514;52.164;5.282;2022-07-17T07:02:07;7.40;;;1.90;;
70148;SDS011;57514;52.164;5.282;2022-07-17T07:04:34;6.55;;;1.80;;
70148;SDS011;57514;52.164;5.282;2022-07-17T07:07:02;4.55;;;1.40;;
70148;SDS011;57514;52.164;5.282;2022-07-17T07:09:29;5.88;;;1.70;;
70148;SDS011;57514;52.164;5.282;2022-07-17T07:11:56;4.18;;;1.73;;
70148;SDS011;57514;52.164;5.282;2022-07-17T07:14:23;8.32;;;1.50;;
70148;SDS011;57514;52.164;5.282;2022-07-17T07:16:50;6.20;;;1.48;;
70148;SDS011;57514;52.164;5.282;2022-07-17T07:19:18;7.47;;;1.80;;
70148;SDS011;57514;52.164;5.282;2022-07-17T07:21:44;5.60;;;1.80;;
70148;SDS011;57514;52.164;5.282;2022-07-17T07:24:12;4.43;;;1.23;;
70148;SDS011;57514;52.164;5.282;2022-07-17T07:26:39;4.72;;;1.30;;
70148;SDS011;57514;52.164;5.282;2022-07-17T07:29:06;5.43;;;1.52;;
70148;SDS011;57514;52.164;5.282;2022-07-17T07:31:41;4.28;;;1.40;;
70148;SDS011;57514;52.164;5.282;2022-07-17T07:34:08;6.93;;;1.50;;
70148;SDS011;57514;52.164;5.282;2022-07-17T07:36:36;7.57;;;1.50;;
70148;SDS011;57514;52.164;5.282;2022-07-17T07:39:03;4.75;;;1.40;;
70148;SDS011;57514;52.164;5.282;2022-07-17T07:41:30;5.20;;;1.10;;
70148;SDS011;57514;52.164;5.282;2022-07-17T07:43:57;6.13;;;1.27;;
70148;SDS011;57514;52.164;5.282;2022-07-17T07:46:25;5.68;;;1.50;;
70148;SDS011;57514;52.164;5.282;2022-07-17T07:48:55;6.70;;;1.42;;
70148;SDS011;57514;52.164;5.282;2022-07-17T07:51:22;5.35;;;1.40;;
70148;SDS011;57514;52.164;5.282;2022-07-17T07:54:10;6.80;;;1.70;;
70148;SDS011;57514;52.164;5.282;2022-07-17T07:56:37;3.72;;;1.30;;
70148;SDS011;57514;52.164;5.282;2022-07-17T07:59:04;6.97;;;1.52;;
70148;SDS011;57514;52.164;5.282;2022-07-17T08:01:32;7.35;;;1.50;;
70148;SDS011;57514;52.164;5.282;2022-07-17T08:03:59;4.53;;;1.38;;
70148;SDS011;57514;52.164;5.282;2022-07-17T08:06:26;7.03;;;1.70;;
70148;SDS011;57514;52.164;5.282;2022-07-17T08:08:54;6.43;;;1.60;;
70148;SDS011;57514;52.164;5.282;2022-07-17T08:11:21;6.15;;;1.65;;
70148;SDS011;57514;52.164;5.282;2022-07-17T08:13:48;5.55;;;1.40;;
70148;SDS011;57514;52.164;5.282;2022-07-17T08:16:15;6.13;;;1.52;;
70148;SDS011;57514;52.164;5.282;2022-07-17T08:18:42;5.38;;;1.48;;
70148;SDS011;57514;52.164;5.282;2022-07-17T08:21:10;6.20;;;1.50;;
70148;SDS011;57514;52.164;5.282;2022-07-17T08:23:37;7.13;;;1.30;;
70148;SDS011;57514;52.164;5.282;2022-07-17T08:26:04;5.93;;;1.38;;
70148;SDS011;57514;52.164;5.282;2022-07-17T08:28:36;3.78;;;1.10;;
70148;SDS011;57514;52.164;5.282;2022-07-17T08:31:03;8.70;;;1.50;;
70148;SDS011;57514;52.164;5.282;2022-07-17T08:33:31;4.85;;;1.35;;
70148;SDS011;57514;52.164;5.282;2022-07-17T08:35:58;5.55;;;1.40;;
70148;SDS011;57514;52.164;5.282;2022-07-17T08:38:25;4.50;;;1.10;;
70148;SDS011;57514;52.164;5.282;2022-07-17T08:40:52;5.32;;;1.50;;
70148;SDS011;57514;52.164;5.282;2022-07-17T08:43:20;5.88;;;1.42;;
70148;SDS011;57514;52.164;5.282;2022-07-17T08:45:47;5.88;;;1.50;;
70148;SDS011;57514;52.164;5.282;2022-07-17T08:48:16;3.92;;;1.55;;
70148;SDS011;57514;52.164;5.282;2022-07-17T08:50:44;3.42;;;1.35;;
70148;SDS011;57514;52.164;5.282;2022-07-17T08:53:12;6.22;;;1.60;;
70148;SDS011;57514;52.164;5.282;2022-07-17T08:55:39;6.25;;;1.40;;
70148;SDS011;57514;52.164;5.282;2022-07-17T08:58:06;4.88;;;1.33;;
70148;SDS011;57514;52.164;5.282;2022-07-17T09:00:33;5.43;;;1.15;;
70148;SDS011;57514;52.164;5.282;2022-07-17T09:03:04;5.93;;;1.30;;
70148;SDS011;57514;52.164;5.282;2022-07-17T09:05:37;5.82;;;1.50;;
70148;SDS011;57514;52.164;5.282;2022-07-17T09:08:06;5.07;;;1.33;;
70148;SDS011;57514;52.164;5.282;2022-07-17T09:10:41;3.42;;;1.45;;
70148;SDS011;57514;52.164;5.282;2022-07-17T09:13:14;4.68;;;1.42;;
70148;SDS011;57514;52.164;5.282;2022-07-17T09:15:43;7.35;;;1.80;;
70148;SDS011;57514;52.164;5.282;2022-07-17T09:18:11;6.78;;;1.55;;
70148;SDS011;57514;52.164;5.282;2022-07-17T09:20:49;5.03;;;1.35;;
70148;SDS011;57514;52.164;5.282;2022-07-17T09:23:21;3.70;;;1.27;;
70148;SDS011;57514;52.164;5.282;2022-07-17T09:25:50;3.08;;;1.50;;
70148;SDS011;57514;52.164;5.282;2022-07-17T09:28:18;6.00;;;1.67;;
70148;SDS011;57514;52.164;5.282;2022-07-17T09:30:49;3.55;;;1.45;;
70148;SDS011;57514;52.164;5.282;2022-07-17T09:33:18;3.75;;;1.60;;
70148;SDS011;57514;52.164;5.282;2022-07-17T09:35:49;5.07;;;1.58;;
70148;SDS011;57514;52.164;5.282;2022-07-17T09:38:30;7.25;;;2.03;;
70148;SDS011;57514;52.164;5.282;2022-07-17T09:43:39;3.72;;;1.52;;
70148;SDS011;57514;52.164;5.282;2022-07-17T09:46:12;4.20;;;1.50;;
70148;SDS011;57514;52.164;5.282;2022-07-17T09:48:50;5.90;;;1.83;;
70148;SDS011;57514;52.164;5.282;2022-07-17T09:51:22;4.97;;;1.55;;
70148;SDS011;57514;52.164;5.282;2022-07-17T09:53:57;5.78;;;1.60;;
70148;SDS011;57514;52.164;5.282;2022-07-17T09:56:26;5.45;;;1.50;;
70148;SDS011;57514;52.164;5.282;2022-07-17T09:58:56;3.67;;;1.52;;
70148;SDS011;57514;52.164;5.282;2022-07-17T10:01:38;4.03;;;1.55;;
70148;SDS011;57514;52.164;5.282;2022-07-17T10:06:32;3.28;;;1.45;;
70148;SDS011;57514;52.164;5.282;2022-07-17T10:09:00;4.07;;;1.42;;
70148;SDS011;57514;52.164;5.282;2022-07-17T10:11:29;6.55;;;1.63;;
70148;SDS011;57514;52.164;5.282;2022-07-17T10:16:37;3.55;;;1.50;;
70148;SDS011;57514;52.164;5.282;2022-07-17T10:19:20;2.88;;;1.42;;
70148;SDS011;57514;52.164;5.282;2022-07-17T10:22:04;5.72;;;2.00;;
70148;SDS011;57514;52.164;5.282;2022-07-17T10:24:31;5.38;;;1.80;;
70148;SDS011;57514;52.164;5.282;2022-07-17T10:26:59;5.32;;;1.83;;
70148;SDS011;57514;52.164;5.282;2022-07-17T10:32:15;4.40;;;1.77;;
70148;SDS011;57514;52.164;5.282;2022-07-17T10:34:48;4.28;;;1.90;;
70148;SDS011;57514;52.164;5.282;2022-07-17T10:37:24;3.53;;;1.73;;
70148;SDS011;57514;52.164;5.282;2022-07-17T10:40:00;4.18;;;1.58;;
70148;SDS011;57514;52.164;5.282;2022-07-17T10:45:15;4.25;;;1.90;;
70148;SDS011;57514;52.164;5.282;2022-07-17T10:50:16;3.38;;;1.60;;
70148;SDS011;57514;52.164;5.282;2022-07-17T10:55:27;5.18;;;2.08;;
70148;SDS011;57514;52.164;5.282;2022-07-17T10:57:54;3.05;;;1.55;;
70148;SDS011;57514;52.164;5.282;2022-07-17T11:00:22;6.38;;;1.92;;
70148;SDS011;57514;52.164;5.282;2022-07-17T11:02:49;4.50;;;1.70;;
70148;SDS011;57514;52.164;5.282;2022-07-17T11:05:17;3.50;;;1.58;;
70148;SDS011;57514;52.164;5.282;2022-07-17T11:07:57;3.60;;;1.70;;
70148;SDS011;57514;52.164;5.282;2022-07-17T11:10:26;6.05;;;1.70;;
70148;SDS011;57514;52.164;5.282;2022-07-17T11:12:55;5.30;;;1.88;;
70148;SDS011;57514;52.164;5.282;2022-07-17T11:15:45;3.33;;;1.63;;
70148;SDS011;57514;52.164;5.282;2022-07-17T11:18:15;5.30;;;1.92;;
70148;SDS011;57514;52.164;5.282;2022-07-17T11:20:47;3.72;;;1.70;;
70148;SDS011;57514;52.164;5.282;2022-07-17T11:23:15;5.18;;;1.50;;
70148;SDS011;57514;52.164;5.282;2022-07-17T11:28:40;6.97;;;2.22;;
70148;SDS011;57514;52.164;5.282;2022-07-17T11:36:25;5.78;;;1.92;;
70148;SDS011;57514;52.164;5.282;2022-07-17T11:39:03;3.75;;;1.80;;
70148;SDS011;57514;52.164;5.282;2022-07-17T11:44:05;5.10;;;1.98;;
70148;SDS011;57514;52.164;5.282;2022-07-17T11:46:34;3.17;;;1.77;;
70148;SDS011;57514;52.164;5.282;2022-07-17T11:49:02;6.38;;;1.80;;
70148;SDS011;57514;52.164;5.282;2022-07-17T11:51:33;4.43;;;2.20;;
70148;SDS011;57514;52.164;5.282;2022-07-17T11:54:08;6.18;;;2.40;;
70148;SDS011;57514;52.164;5.282;2022-07-17T11:56:37;4.13;;;1.90;;
70148;SDS011;57514;52.164;5.282;2022-07-17T11:59:05;5.00;;;1.98;;
70148;SDS011;57514;52.164;5.282;2022-07-17T12:01:43;4.15;;;1.92;;
70148;SDS011;57514;52.164;5.282;2022-07-17T12:04:12;4.85;;;2.08;;
70148;SDS011;57514;52.164;5.282;2022-07-17T12:06:42;6.65;;;2.28;;
70148;SDS011;57514;52.164;5.282;2022-07-17T12:09:10;4.88;;;2.03;;
70148;SDS011;57514;52.164;5.282;2022-07-17T12:11:45;3.58;;;1.90;;
70148;SDS011;57514;52.164;5.282;2022-07-17T12:14:15;6.25;;;2.30;;
70148;SDS011;57514;52.164;5.282;2022-07-17T12:16:43;4.60;;;2.03;;
70148;SDS011;57514;52.164;5.282;2022-07-17T12:19:12;4.43;;;2.00;;
70148;SDS011;57514;52.164;5.282;2022-07-17T12:21:46;4.38;;;2.03;;
70148;SDS011;57514;52.164;5.282;2022-07-17T12:24:20;4.15;;;2.05;;
70148;SDS011;57514;52.164;5.282;2022-07-17T12:26:52;5.72;;;2.42;;
70148;SDS011;57514;52.164;5.282;2022-07-17T12:29:23;6.85;;;2.35;;
70148;SDS011;57514;52.164;5.282;2022-07-17T12:32:06;5.78;;;2.20;;
70148;SDS011;57514;52.164;5.282;2022-07-17T12:34:38;4.90;;;2.10;;
70148;SDS011;57514;52.164;5.282;2022-07-17T12:44:41;6.80;;;2.50;;
70148;SDS011;57514;52.164;5.282;2022-07-17T12:47:08;5.15;;;2.28;;
70148;SDS011;57514;52.164;5.282;2022-07-17T12:49:35;6.13;;;2.40;;
70148;SDS011;57514;52.164;5.282;2022-07-17T12:52:03;5.82;;;2.50;;
70148;SDS011;57514;52.164;5.282;2022-07-17T12:54:30;5.50;;;2.40;;
70148;SDS011;57514;52.164;5.282;2022-07-17T12:56:58;8.23;;;2.70;;
70148;SDS011;57514;52.164;5.282;2022-07-17T12:59:24;7.30;;;2.72;;
70148;SDS011;57514;52.164;5.282;2022-07-17T13:01:51;5.63;;;2.75;;
70148;SDS011;57514;52.164;5.282;2022-07-17T13:04:20;6.47;;;2.50;;
70148;SDS011;57514;52.164;5.282;2022-07-17T13:06:47;5.63;;;2.35;;
70148;SDS011;57514;52.164;5.282;2022-07-17T13:09:15;8.10;;;3.17;;
70148;SDS011;57514;52.164;5.282;2022-07-17T13:11:45;7.45;;;2.70;;
70148;SDS011;57514;52.164;5.282;2022-07-17T13:14:12;6.40;;;3.00;;
70148;SDS011;57514;52.164;5.282;2022-07-17T13:16:39;7.97;;;2.90;;
70148;SDS011;57514;52.164;5.282;2022-07-17T13:19:07;6.70;;;3.03;;
70148;SDS011;57514;52.164;5.282;2022-07-17T13:21:34;7.38;;;3.00;;
70148;SDS011;57514;52.164;5.282;2022-07-17T13:24:02;7.25;;;3.08;;
70148;SDS011;57514;52.164;5.282;2022-07-17T13:26:29;7.70;;;3.30;;
70148;SDS011;57514;52.164;5.282;2022-07-17T13:28:57;8.27;;;3.40;;
70148;SDS011;57514;52.164;5.282;2022-07-17T13:31:24;8.18;;;3.40;;
70148;SDS011;57514;52.164;5.282;2022-07-17T13:33:51;7.30;;;3.20;;
70148;SDS011;57514;52.164;5.282;2022-07-17T13:36:19;7.13;;;3.35;;
70148;SDS011;57514;52.164;5.282;2022-07-17T13:38:46;8.45;;;3.70;;
70148;SDS011;57514;52.164;5.282;2022-07-17T13:41:13;7.93;;;3.58;;
70148;SDS011;57514;52.164;5.282;2022-07-17T13:43:40;9.23;;;3.65;;
70148;SDS011;57514;52.164;5.282;2022-07-17T13:46:08;8.18;;;3.83;;
70148;SDS011;57514;52.164;5.282;2022-07-17T13:48:35;7.85;;;3.33;;
70148;SDS011;57514;52.164;5.282;2022-07-17T13:51:05;8.48;;;4.05;;
70148;SDS011;57514;52.164;5.282;2022-07-17T13:53:33;9.02;;;4.00;;
70148;SDS011;57514;52.164;5.282;2022-07-17T13:56:02;9.15;;;4.03;;
70148;SDS011;57514;52.164;5.282;2022-07-17T13:58:29;8.23;;;3.85;;
70148;SDS011;57514;52.164;5.282;2022-07-17T14:03:26;7.57;;;3.20;;
70148;SDS011;57514;52.164;5.282;2022-07-17T14:05:53;8.50;;;3.85;;
70148;SDS011;57514;52.164;5.282;2022-07-17T14:08:21;8.40;;;4.15;;
70148;SDS011;57514;52.164;5.282;2022-07-17T14:10:49;9.25;;;4.07;;
70148;SDS011;57514;52.164;5.282;2022-07-17T14:13:16;11.00;;;4.50;;
70148;SDS011;57514;52.164;5.282;2022-07-17T14:15:43;8.43;;;3.85;;
70148;SDS011;57514;52.164;5.282;2022-07-17T14:18:11;9.57;;;4.80;;
70148;SDS011;57514;52.164;5.282;2022-07-17T14:20:38;8.27;;;3.83;;
70148;SDS011;57514;52.164;5.282;2022-07-17T14:23:05;8.88;;;3.90;;
70148;SDS011;57514;52.164;5.282;2022-07-17T14:25:33;9.10;;;4.13;;
70148;SDS011;57514;52.164;5.282;2022-07-17T14:28:07;9.95;;;4.28;;
70148;SDS011;57514;52.164;5.282;2022-07-17T14:30:35;8.48;;;4.70;;
70148;SDS011;57514;52.164;5.282;2022-07-17T14:33:03;9.05;;;3.88;;
70148;SDS011;57514;52.164;5.282;2022-07-17T14:35:30;9.13;;;4.05;;
70148;SDS011;57514;52.164;5.282;2022-07-17T14:37:58;7.63;;;3.92;;
70148;SDS011;57514;52.164;5.282;2022-07-17T14:40:25;8.88;;;3.90;;
70148;SDS011;57514;52.164;5.282;2022-07-17T14:42:52;8.25;;;3.58;;
70148;SDS011;57514;52.164;5.282;2022-07-17T14:45:19;9.43;;;4.38;;
70148;SDS011;57514;52.164;5.282;2022-07-17T14:47:47;10.07;;;4.18;;
70148;SDS011;57514;52.164;5.282;2022-07-17T14:50:14;8.75;;;3.95;;
70148;SDS011;57514;52.164;5.282;2022-07-17T14:52:41;10.32;;;4.45;;
70148;SDS011;57514;52.164;5.282;2022-07-17T14:55:08;10.02;;;4.32;;
70148;SDS011;57514;52.164;5.282;2022-07-17T14:57:36;10.38;;;4.47;;
70148;SDS011;57514;52.164;5.282;2022-07-17T15:00:03;11.82;;;4.97;;
70148;SDS011;57514;52.164;5.282;2022-07-17T15:02:31;9.43;;;4.80;;
70148;SDS011;57514;52.164;5.282;2022-07-17T15:04:58;10.60;;;5.03;;
70148;SDS011;57514;52.164;5.282;2022-07-17T15:07:25;11.15;;;5.25;;
70148;SDS011;57514;52.164;5.282;2022-07-17T15:09:52;11.23;;;5.22;;
70148;SDS011;57514;52.164;5.282;2022-07-17T15:12:20;9.40;;;4.72;;
70148;SDS011;57514;52.164;5.282;2022-07-17T15:14:47;12.18;;;5.55;;
70148;SDS011;57514;52.164;5.282;2022-07-17T15:17:18;11.18;;;5.43;;
70148;SDS011;57514;52.164;5.282;2022-07-17T15:19:45;11.38;;;5.53;;
70148;SDS011;57514;52.164;5.282;2022-07-17T15:22:13;9.45;;;4.70;;
70148;SDS011;57514;52.164;5.282;2022-07-17T15:24:40;10.65;;;5.32;;
70148;SDS011;57514;52.164;5.282;2022-07-17T15:27:07;10.65;;;5.53;;
70148;SDS011;57514;52.164;5.282;2022-07-17T15:29:34;11.68;;;5.60;;
70148;SDS011;57514;52.164;5.282;2022-07-17T15:32:03;11.63;;;5.55;;
70148;SDS011;57514;52.164;5.282;2022-07-17T15:34:30;10.98;;;5.20;;